sensor_id;sensor_type;location;lat;lon;timestamp;P1;durP1;ratioP1;P2;durP2;ratioP2
48667;SDS011;34453;52.198;5.004;2023-07-20T00:00:59;1.92;;;1.83;;
48667;SDS011;34453;52.198;5.004;2023-07-20T00:03:24;2.47;;;1.52;;
48667;SDS011;34453;52.198;5.004;2023-07-20T00:05:50;1.70;;;1.60;;
48667;SDS011;34453;52.198;5.004;2023-07-20T00:08:17;1.40;;;1.30;;
48667;SDS011;34453;52.198;5.004;2023-07-20T00:10:43;1.20;;;1.10;;
48667;SDS011;34453;52.198;5.004;2023-07-20T00:13:09;1.33;;;1.33;;
48667;SDS011;34453;52.198;5.004;2023-07-20T00:15:36;2.08;;;1.30;;
48667;SDS011;34453;52.198;5.004;2023-07-20T00:18:02;0.90;;;0.90;;
48667;SDS011;34453;52.198;5.004;2023-07-20T00:20:31;1.75;;;1.10;;
48667;SDS011;34453;52.198;5.004;2023-07-20T00:22:57;1.10;;;1.10;;
48667;SDS011;34453;52.198;5.004;2023-07-20T00:25:23;1.13;;;1.13;;
48667;SDS011;34453;52.198;5.004;2023-07-20T00:27:49;0.98;;;0.98;;
48667;SDS011;34453;52.198;5.004;2023-07-20T00:30:15;1.10;;;1.10;;
48667;SDS011;34453;52.198;5.004;2023-07-20T00:32:41;2.28;;;1.00;;
48667;SDS011;34453;52.198;5.004;2023-07-20T00:35:07;1.25;;;1.20;;
48667;SDS011;34453;52.198;5.004;2023-07-20T00:37:32;2.60;;;0.80;;
48667;SDS011;34453;52.198;5.004;2023-07-20T00:39:58;3.97;;;1.20;;
48667;SDS011;34453;52.198;5.004;2023-07-20T00:42:23;0.73;;;0.70;;
48667;SDS011;34453;52.198;5.004;2023-07-20T00:44:49;0.95;;;0.85;;
48667;SDS011;34453;52.198;5.004;2023-07-20T00:47:14;3.08;;;0.95;;
48667;SDS011;34453;52.198;5.004;2023-07-20T00:49:40;0.85;;;0.85;;
48667;SDS011;34453;52.198;5.004;2023-07-20T00:52:06;0.80;;;0.80;;
48667;SDS011;34453;52.198;5.004;2023-07-20T00:54:32;3.25;;;1.10;;
48667;SDS011;34453;52.198;5.004;2023-07-20T00:56:59;1.13;;;1.13;;
48667;SDS011;34453;52.198;5.004;2023-07-20T00:59:26;1.58;;;0.88;;
48667;SDS011;34453;52.198;5.004;2023-07-20T01:01:52;0.95;;;0.95;;
48667;SDS011;34453;52.198;5.004;2023-07-20T01:04:17;3.22;;;1.00;;
48667;SDS011;34453;52.198;5.004;2023-07-20T01:09:26;2.95;;;1.15;;
48667;SDS011;34453;52.198;5.004;2023-07-20T01:12:07;2.70;;;1.00;;
48667;SDS011;34453;52.198;5.004;2023-07-20T01:14:37;2.17;;;0.68;;
48667;SDS011;34453;52.198;5.004;2023-07-20T01:17:03;0.82;;;0.80;;
48667;SDS011;34453;52.198;5.004;2023-07-20T01:19:28;1.35;;;0.75;;
48667;SDS011;34453;52.198;5.004;2023-07-20T01:21:59;1.17;;;1.08;;
48667;SDS011;34453;52.198;5.004;2023-07-20T01:27:22;0.80;;;0.80;;
48667;SDS011;34453;52.198;5.004;2023-07-20T01:33:05;1.83;;;1.33;;
48667;SDS011;34453;52.198;5.004;2023-07-20T01:35:33;1.80;;;1.38;;
48667;SDS011;34453;52.198;5.004;2023-07-20T01:38:00;2.35;;;1.40;;
48667;SDS011;34453;52.198;5.004;2023-07-20T01:40:26;1.27;;;1.17;;
48667;SDS011;34453;52.198;5.004;2023-07-20T01:42:52;1.27;;;1.27;;
48667;SDS011;34453;52.198;5.004;2023-07-20T01:45:18;1.42;;;1.30;;
48667;SDS011;34453;52.198;5.004;2023-07-20T01:47:44;1.38;;;1.27;;
48667;SDS011;34453;52.198;5.004;2023-07-20T01:50:10;2.05;;;1.83;;
48667;SDS011;34453;52.198;5.004;2023-07-20T01:52:35;3.50;;;1.70;;
48667;SDS011;34453;52.198;5.004;2023-07-20T01:55:01;1.33;;;1.20;;
48667;SDS011;34453;52.198;5.004;2023-07-20T01:57:26;4.05;;;2.33;;
48667;SDS011;34453;52.198;5.004;2023-07-20T01:59:51;3.33;;;2.08;;
48667;SDS011;34453;52.198;5.004;2023-07-20T02:02:17;1.92;;;1.83;;
48667;SDS011;34453;52.198;5.004;2023-07-20T02:04:43;2.30;;;1.65;;
48667;SDS011;34453;52.198;5.004;2023-07-20T02:07:08;2.25;;;2.05;;
48667;SDS011;34453;52.198;5.004;2023-07-20T02:09:34;3.38;;;1.65;;
48667;SDS011;34453;52.198;5.004;2023-07-20T02:11:59;2.30;;;2.20;;
48667;SDS011;34453;52.198;5.004;2023-07-20T02:14:24;5.05;;;2.60;;
48667;SDS011;34453;52.198;5.004;2023-07-20T02:16:50;3.80;;;2.50;;
48667;SDS011;34453;52.198;5.004;2023-07-20T02:19:24;3.60;;;2.08;;
48667;SDS011;34453;52.198;5.004;2023-07-20T02:21:50;2.40;;;2.28;;
48667;SDS011;34453;52.198;5.004;2023-07-20T02:24:15;2.17;;;2.08;;
48667;SDS011;34453;52.198;5.004;2023-07-20T02:26:41;3.17;;;2.97;;
48667;SDS011;34453;52.198;5.004;2023-07-20T02:29:06;3.05;;;2.80;;
48667;SDS011;34453;52.198;5.004;2023-07-20T02:31:32;2.47;;;2.28;;
48667;SDS011;34453;52.198;5.004;2023-07-20T02:33:58;2.85;;;2.65;;
48667;SDS011;34453;52.198;5.004;2023-07-20T02:36:23;2.85;;;2.75;;
48667;SDS011;34453;52.198;5.004;2023-07-20T02:38:49;5.97;;;2.90;;
48667;SDS011;34453;52.198;5.004;2023-07-20T02:41:14;8.55;;;2.85;;
48667;SDS011;34453;52.198;5.004;2023-07-20T02:43:40;3.17;;;2.88;;
48667;SDS011;34453;52.198;5.004;2023-07-20T02:46:05;5.03;;;3.22;;
48667;SDS011;34453;52.198;5.004;2023-07-20T02:48:30;3.22;;;3.08;;
48667;SDS011;34453;52.198;5.004;2023-07-20T02:50:56;3.00;;;2.90;;
48667;SDS011;34453;52.198;5.004;2023-07-20T02:53:21;3.45;;;3.35;;
48667;SDS011;34453;52.198;5.004;2023-07-20T02:55:47;3.00;;;2.80;;
48667;SDS011;34453;52.198;5.004;2023-07-20T02:58:12;3.85;;;3.55;;
48667;SDS011;34453;52.198;5.004;2023-07-20T03:00:38;3.75;;;3.55;;
48667;SDS011;34453;52.198;5.004;2023-07-20T03:03:03;3.85;;;3.53;;
48667;SDS011;34453;52.198;5.004;2023-07-20T03:05:28;3.65;;;3.35;;
48667;SDS011;34453;52.198;5.004;2023-07-20T03:07:55;3.85;;;3.65;;
48667;SDS011;34453;52.198;5.004;2023-07-20T03:10:21;4.82;;;4.13;;
48667;SDS011;34453;52.198;5.004;2023-07-20T03:12:46;4.20;;;3.85;;
48667;SDS011;34453;52.198;5.004;2023-07-20T03:15:11;4.60;;;4.15;;
48667;SDS011;34453;52.198;5.004;2023-07-20T03:17:37;4.47;;;4.28;;
48667;SDS011;34453;52.198;5.004;2023-07-20T03:20:02;4.65;;;4.35;;
48667;SDS011;34453;52.198;5.004;2023-07-20T03:22:28;6.15;;;4.03;;
48667;SDS011;34453;52.198;5.004;2023-07-20T03:24:54;5.32;;;4.97;;
48667;SDS011;34453;52.198;5.004;2023-07-20T03:27:20;6.70;;;4.40;;
48667;SDS011;34453;52.198;5.004;2023-07-20T03:29:45;5.68;;;5.25;;
48667;SDS011;34453;52.198;5.004;2023-07-20T03:32:10;5.10;;;4.57;;
48667;SDS011;34453;52.198;5.004;2023-07-20T03:34:36;4.43;;;4.15;;
48667;SDS011;34453;52.198;5.004;2023-07-20T03:37:01;4.53;;;4.13;;
48667;SDS011;34453;52.198;5.004;2023-07-20T03:39:29;4.40;;;4.18;;
48667;SDS011;34453;52.198;5.004;2023-07-20T03:41:55;4.93;;;4.53;;
48667;SDS011;34453;52.198;5.004;2023-07-20T03:44:20;4.93;;;4.63;;
48667;SDS011;34453;52.198;5.004;2023-07-20T03:46:46;4.38;;;4.07;;
48667;SDS011;34453;52.198;5.004;2023-07-20T03:49:11;5.82;;;4.63;;
48667;SDS011;34453;52.198;5.004;2023-07-20T03:51:36;4.97;;;4.65;;
48667;SDS011;34453;52.198;5.004;2023-07-20T03:54:02;4.80;;;4.50;;
48667;SDS011;34453;52.198;5.004;2023-07-20T03:56:27;4.40;;;4.10;;
48667;SDS011;34453;52.198;5.004;2023-07-20T03:58:53;5.10;;;4.70;;
48667;SDS011;34453;52.198;5.004;2023-07-20T04:01:18;5.07;;;4.57;;
48667;SDS011;34453;52.198;5.004;2023-07-20T04:03:43;5.43;;;4.22;;
48667;SDS011;34453;52.198;5.004;2023-07-20T04:06:09;4.93;;;4.63;;
48667;SDS011;34453;52.198;5.004;2023-07-20T04:08:35;4.57;;;4.32;;
48667;SDS011;34453;52.198;5.004;2023-07-20T04:11:02;6.47;;;4.82;;
48667;SDS011;34453;52.198;5.004;2023-07-20T04:13:27;6.07;;;4.30;;
48667;SDS011;34453;52.198;5.004;2023-07-20T04:15:53;4.68;;;4.30;;
48667;SDS011;34453;52.198;5.004;2023-07-20T04:18:20;5.03;;;4.63;;
48667;SDS011;34453;52.198;5.004;2023-07-20T04:20:45;4.10;;;3.90;;
48667;SDS011;34453;52.198;5.004;2023-07-20T04:23:10;5.00;;;4.60;;
48667;SDS011;34453;52.198;5.004;2023-07-20T04:25:36;4.80;;;4.40;;
48667;SDS011;34453;52.198;5.004;2023-07-20T04:28:05;5.00;;;4.70;;
48667;SDS011;34453;52.198;5.004;2023-07-20T04:30:33;5.35;;;4.97;;
48667;SDS011;34453;52.198;5.004;2023-07-20T04:33:00;4.50;;;4.18;;
48667;SDS011;34453;52.198;5.004;2023-07-20T04:38:17;4.45;;;4.25;;
48667;SDS011;34453;52.198;5.004;2023-07-20T04:40:44;4.47;;;4.07;;
48667;SDS011;34453;52.198;5.004;2023-07-20T04:43:10;5.10;;;4.65;;
48667;SDS011;34453;52.198;5.004;2023-07-20T04:45:36;5.00;;;4.70;;
48667;SDS011;34453;52.198;5.004;2023-07-20T04:48:01;4.78;;;4.47;;
48667;SDS011;34453;52.198;5.004;2023-07-20T04:50:27;5.65;;;5.25;;
48667;SDS011;34453;52.198;5.004;2023-07-20T04:52:53;6.95;;;4.53;;
48667;SDS011;34453;52.198;5.004;2023-07-20T04:55:18;4.60;;;4.28;;
48667;SDS011;34453;52.198;5.004;2023-07-20T04:57:44;4.97;;;4.68;;
48667;SDS011;34453;52.198;5.004;2023-07-20T05:00:09;5.95;;;4.72;;
48667;SDS011;34453;52.198;5.004;2023-07-20T05:02:36;5.10;;;4.70;;
48667;SDS011;34453;52.198;5.004;2023-07-20T05:05:03;5.00;;;4.60;;
48667;SDS011;34453;52.198;5.004;2023-07-20T05:07:30;4.30;;;3.95;;
48667;SDS011;34453;52.198;5.004;2023-07-20T05:09:56;4.88;;;4.55;;
48667;SDS011;34453;52.198;5.004;2023-07-20T05:12:22;4.53;;;4.32;;
48667;SDS011;34453;52.198;5.004;2023-07-20T05:14:47;4.47;;;4.00;;
48667;SDS011;34453;52.198;5.004;2023-07-20T05:17:12;5.25;;;3.72;;
48667;SDS011;34453;52.198;5.004;2023-07-20T05:19:38;3.88;;;3.58;;
48667;SDS011;34453;52.198;5.004;2023-07-20T05:22:03;4.13;;;3.63;;
48667;SDS011;34453;52.198;5.004;2023-07-20T05:24:30;4.15;;;3.85;;
48667;SDS011;34453;52.198;5.004;2023-07-20T05:26:56;3.08;;;2.80;;
48667;SDS011;34453;52.198;5.004;2023-07-20T05:29:21;2.83;;;2.60;;
48667;SDS011;34453;52.198;5.004;2023-07-20T05:31:47;2.30;;;2.15;;
48667;SDS011;34453;52.198;5.004;2023-07-20T05:34:12;2.05;;;1.92;;
48667;SDS011;34453;52.198;5.004;2023-07-20T05:36:37;1.80;;;1.70;;
48667;SDS011;34453;52.198;5.004;2023-07-20T05:39:03;1.50;;;1.40;;
48667;SDS011;34453;52.198;5.004;2023-07-20T05:41:29;1.10;;;1.02;;
48667;SDS011;34453;52.198;5.004;2023-07-20T05:43:54;2.35;;;1.00;;
48667;SDS011;34453;52.198;5.004;2023-07-20T05:46:19;1.92;;;0.70;;
48667;SDS011;34453;52.198;5.004;2023-07-20T05:48:45;3.28;;;0.95;;
48667;SDS011;34453;52.198;5.004;2023-07-20T05:51:10;0.80;;;0.80;;
48667;SDS011;34453;52.198;5.004;2023-07-20T05:53:36;1.92;;;0.90;;
48667;SDS011;34453;52.198;5.004;2023-07-20T05:56:01;8.60;;;1.00;;
48667;SDS011;34453;52.198;5.004;2023-07-20T05:58:28;1.25;;;0.68;;
48667;SDS011;34453;52.198;5.004;2023-07-20T06:00:53;2.15;;;0.60;;
48667;SDS011;34453;52.198;5.004;2023-07-20T06:03:18;0.70;;;0.70;;
48667;SDS011;34453;52.198;5.004;2023-07-20T06:05:46;0.70;;;0.70;;
48667;SDS011;34453;52.198;5.004;2023-07-20T06:08:12;6.70;;;0.98;;
48667;SDS011;34453;52.198;5.004;2023-07-20T06:10:37;0.60;;;0.60;;
48667;SDS011;34453;52.198;5.004;2023-07-20T06:13:03;3.13;;;0.75;;
48667;SDS011;34453;52.198;5.004;2023-07-20T06:15:31;1.35;;;1.00;;
48667;SDS011;34453;52.198;5.004;2023-07-20T06:17:59;4.47;;;0.73;;
48667;SDS011;34453;52.198;5.004;2023-07-20T06:20:25;1.48;;;0.70;;
48667;SDS011;34453;52.198;5.004;2023-07-20T06:22:51;0.98;;;0.98;;
48667;SDS011;34453;52.198;5.004;2023-07-20T06:25:17;0.95;;;0.95;;
48667;SDS011;34453;52.198;5.004;2023-07-20T06:27:42;0.43;;;0.40;;
48667;SDS011;34453;52.198;5.004;2023-07-20T06:30:09;1.45;;;0.50;;
48667;SDS011;34453;52.198;5.004;2023-07-20T06:32:35;0.65;;;0.65;;
48667;SDS011;34453;52.198;5.004;2023-07-20T06:35:01;1.05;;;0.40;;
48667;SDS011;34453;52.198;5.004;2023-07-20T06:37:26;3.83;;;0.85;;
48667;SDS011;34453;52.198;5.004;2023-07-20T06:39:51;1.10;;;0.40;;
48667;SDS011;34453;52.198;5.004;2023-07-20T06:42:17;3.60;;;0.50;;
48667;SDS011;34453;52.198;5.004;2023-07-20T06:44:43;1.52;;;0.55;;
48667;SDS011;34453;52.198;5.004;2023-07-20T06:47:08;2.25;;;0.60;;
48667;SDS011;34453;52.198;5.004;2023-07-20T06:49:34;0.50;;;0.50;;
48667;SDS011;34453;52.198;5.004;2023-07-20T06:51:59;0.50;;;0.50;;
48667;SDS011;34453;52.198;5.004;2023-07-20T06:54:24;0.70;;;0.52;;
48667;SDS011;34453;52.198;5.004;2023-07-20T06:56:50;2.15;;;0.65;;
48667;SDS011;34453;52.198;5.004;2023-07-20T06:59:16;0.65;;;0.50;;
48667;SDS011;34453;52.198;5.004;2023-07-20T07:01:42;2.65;;;0.60;;
48667;SDS011;34453;52.198;5.004;2023-07-20T07:04:07;1.00;;;1.00;;
48667;SDS011;34453;52.198;5.004;2023-07-20T07:06:32;0.55;;;0.47;;
48667;SDS011;34453;52.198;5.004;2023-07-20T07:08:59;1.27;;;0.77;;
48667;SDS011;34453;52.198;5.004;2023-07-20T07:11:25;1.27;;;0.68;;
48667;SDS011;34453;52.198;5.004;2023-07-20T07:13:50;2.30;;;0.45;;
48667;SDS011;34453;52.198;5.004;2023-07-20T07:16:16;1.10;;;0.40;;
48667;SDS011;34453;52.198;5.004;2023-07-20T07:18:46;3.28;;;0.40;;
48667;SDS011;34453;52.198;5.004;2023-07-20T07:21:11;0.40;;;0.38;;
48667;SDS011;34453;52.198;5.004;2023-07-20T07:23:39;0.45;;;0.40;;
48667;SDS011;34453;52.198;5.004;2023-07-20T07:26:05;0.22;;;0.20;;
48667;SDS011;34453;52.198;5.004;2023-07-20T07:28:30;0.63;;;0.50;;
48667;SDS011;34453;52.198;5.004;2023-07-20T07:30:57;0.38;;;0.32;;
48667;SDS011;34453;52.198;5.004;2023-07-20T07:33:23;3.10;;;0.57;;
48667;SDS011;34453;52.198;5.004;2023-07-20T07:35:51;0.50;;;0.40;;
48667;SDS011;34453;52.198;5.004;2023-07-20T07:38:17;0.50;;;0.50;;
48667;SDS011;34453;52.198;5.004;2023-07-20T07:40:43;1.45;;;0.43;;
48667;SDS011;34453;52.198;5.004;2023-07-20T07:43:09;0.45;;;0.32;;
48667;SDS011;34453;52.198;5.004;2023-07-20T07:45:34;1.38;;;0.50;;
48667;SDS011;34453;52.198;5.004;2023-07-20T07:48:02;4.60;;;0.50;;
48667;SDS011;34453;52.198;5.004;2023-07-20T07:50:27;0.45;;;0.45;;
48667;SDS011;34453;52.198;5.004;2023-07-20T07:52:53;0.20;;;0.20;;
48667;SDS011;34453;52.198;5.004;2023-07-20T07:55:19;0.45;;;0.30;;
48667;SDS011;34453;52.198;5.004;2023-07-20T07:57:44;0.38;;;0.35;;
48667;SDS011;34453;52.198;5.004;2023-07-20T08:00:12;2.38;;;0.60;;
48667;SDS011;34453;52.198;5.004;2023-07-20T08:02:40;0.40;;;0.40;;
48667;SDS011;34453;52.198;5.004;2023-07-20T08:05:07;0.82;;;0.40;;
48667;SDS011;34453;52.198;5.004;2023-07-20T08:07:32;1.55;;;0.35;;
48667;SDS011;34453;52.198;5.004;2023-07-20T08:09:58;0.90;;;0.90;;
48667;SDS011;34453;52.198;5.004;2023-07-20T08:12:24;0.90;;;0.47;;
48667;SDS011;34453;52.198;5.004;2023-07-20T08:14:49;0.40;;;0.40;;
48667;SDS011;34453;52.198;5.004;2023-07-20T08:17:15;0.60;;;0.60;;
48667;SDS011;34453;52.198;5.004;2023-07-20T08:19:40;2.15;;;0.45;;
48667;SDS011;34453;52.198;5.004;2023-07-20T08:22:07;0.50;;;0.50;;
48667;SDS011;34453;52.198;5.004;2023-07-20T08:24:32;1.10;;;0.47;;
48667;SDS011;34453;52.198;5.004;2023-07-20T08:26:58;0.50;;;0.35;;
48667;SDS011;34453;52.198;5.004;2023-07-20T08:29:24;2.22;;;0.50;;
48667;SDS011;34453;52.198;5.004;2023-07-20T08:31:49;1.60;;;0.60;;
48667;SDS011;34453;52.198;5.004;2023-07-20T08:34:15;1.00;;;0.50;;
48667;SDS011;34453;52.198;5.004;2023-07-20T08:36:40;0.55;;;0.40;;
48667;SDS011;34453;52.198;5.004;2023-07-20T08:39:06;0.20;;;0.20;;
48667;SDS011;34453;52.198;5.004;2023-07-20T08:41:33;0.25;;;0.25;;
48667;SDS011;34453;52.198;5.004;2023-07-20T08:43:59;4.22;;;0.82;;
48667;SDS011;34453;52.198;5.004;2023-07-20T08:46:26;0.75;;;0.40;;
48667;SDS011;34453;52.198;5.004;2023-07-20T08:48:53;0.35;;;0.35;;
48667;SDS011;34453;52.198;5.004;2023-07-20T08:51:19;0.45;;;0.30;;
48667;SDS011;34453;52.198;5.004;2023-07-20T08:53:46;2.38;;;0.40;;
48667;SDS011;34453;52.198;5.004;2023-07-20T08:56:13;1.25;;;0.52;;
48667;SDS011;34453;52.198;5.004;2023-07-20T08:58:39;0.43;;;0.43;;
48667;SDS011;34453;52.198;5.004;2023-07-20T09:01:08;3.22;;;0.55;;
48667;SDS011;34453;52.198;5.004;2023-07-20T09:03:36;2.70;;;0.40;;
48667;SDS011;34453;52.198;5.004;2023-07-20T09:06:04;0.75;;;0.75;;
48667;SDS011;34453;52.198;5.004;2023-07-20T09:08:30;0.50;;;0.50;;
48667;SDS011;34453;52.198;5.004;2023-07-20T09:10:56;0.50;;;0.50;;
48667;SDS011;34453;52.198;5.004;2023-07-20T09:13:22;0.75;;;0.40;;
48667;SDS011;34453;52.198;5.004;2023-07-20T09:15:47;0.30;;;0.30;;
48667;SDS011;34453;52.198;5.004;2023-07-20T09:20:57;0.40;;;0.35;;
48667;SDS011;34453;52.198;5.004;2023-07-20T09:23:30;1.33;;;0.50;;
48667;SDS011;34453;52.198;5.004;2023-07-20T09:25:57;0.57;;;0.40;;
48667;SDS011;34453;52.198;5.004;2023-07-20T09:28:23;0.52;;;0.32;;
48667;SDS011;34453;52.198;5.004;2023-07-20T09:30:48;0.60;;;0.45;;
48667;SDS011;34453;52.198;5.004;2023-07-20T09:33:23;0.45;;;0.45;;
48667;SDS011;34453;52.198;5.004;2023-07-20T09:35:49;2.55;;;0.50;;
48667;SDS011;34453;52.198;5.004;2023-07-20T09:38:15;0.88;;;0.50;;
48667;SDS011;34453;52.198;5.004;2023-07-20T09:40:40;0.68;;;0.68;;
48667;SDS011;34453;52.198;5.004;2023-07-20T09:43:09;0.50;;;0.50;;
48667;SDS011;34453;52.198;5.004;2023-07-20T09:45:39;1.05;;;0.60;;
48667;SDS011;34453;52.198;5.004;2023-07-20T09:48:06;0.65;;;0.65;;
48667;SDS011;34453;52.198;5.004;2023-07-20T09:50:33;0.55;;;0.55;;
48667;SDS011;34453;52.198;5.004;2023-07-20T09:52:58;0.43;;;0.43;;
48667;SDS011;34453;52.198;5.004;2023-07-20T09:55:27;1.42;;;0.93;;
48667;SDS011;34453;52.198;5.004;2023-07-20T09:57:54;0.90;;;0.40;;
48667;SDS011;34453;52.198;5.004;2023-07-20T10:00:22;5.15;;;0.50;;
48667;SDS011;34453;52.198;5.004;2023-07-20T10:02:47;1.48;;;0.80;;
48667;SDS011;34453;52.198;5.004;2023-07-20T10:05:16;1.55;;;0.50;;
48667;SDS011;34453;52.198;5.004;2023-07-20T10:07:52;0.77;;;0.77;;
48667;SDS011;34453;52.198;5.004;2023-07-20T10:10:18;1.75;;;0.63;;
48667;SDS011;34453;52.198;5.004;2023-07-20T10:12:44;0.57;;;0.55;;
48667;SDS011;34453;52.198;5.004;2023-07-20T10:18:31;0.82;;;0.50;;
48667;SDS011;34453;52.198;5.004;2023-07-20T10:20:59;0.85;;;0.35;;
48667;SDS011;34453;52.198;5.004;2023-07-20T10:23:26;3.45;;;0.50;;
48667;SDS011;34453;52.198;5.004;2023-07-20T10:25:54;1.58;;;0.68;;
48667;SDS011;34453;52.198;5.004;2023-07-20T10:28:20;0.32;;;0.32;;
48667;SDS011;34453;52.198;5.004;2023-07-20T10:30:48;1.23;;;0.30;;
48667;SDS011;34453;52.198;5.004;2023-07-20T10:33:14;0.63;;;0.63;;
48667;SDS011;34453;52.198;5.004;2023-07-20T10:35:52;2.20;;;0.40;;
48667;SDS011;34453;52.198;5.004;2023-07-20T10:38:19;1.35;;;0.57;;
48667;SDS011;34453;52.198;5.004;2023-07-20T10:40:53;0.32;;;0.30;;
48667;SDS011;34453;52.198;5.004;2023-07-20T10:43:19;0.40;;;0.40;;
48667;SDS011;34453;52.198;5.004;2023-07-20T10:45:48;0.47;;;0.40;;
48667;SDS011;34453;52.198;5.004;2023-07-20T10:48:21;0.95;;;0.45;;
48667;SDS011;34453;52.198;5.004;2023-07-20T10:53:45;0.80;;;0.60;;
48667;SDS011;34453;52.198;5.004;2023-07-20T10:56:13;1.30;;;0.52;;
48667;SDS011;34453;52.198;5.004;2023-07-20T10:58:40;1.42;;;0.60;;
48667;SDS011;34453;52.198;5.004;2023-07-20T11:01:07;0.50;;;0.50;;
48667;SDS011;34453;52.198;5.004;2023-07-20T11:03:34;2.17;;;0.50;;
48667;SDS011;34453;52.198;5.004;2023-07-20T11:08:56;1.75;;;0.73;;
48667;SDS011;34453;52.198;5.004;2023-07-20T11:11:29;0.30;;;0.30;;
48667;SDS011;34453;52.198;5.004;2023-07-20T11:14:06;0.45;;;0.30;;
48667;SDS011;34453;52.198;5.004;2023-07-20T11:16:36;0.50;;;0.50;;
48667;SDS011;34453;52.198;5.004;2023-07-20T11:19:14;0.25;;;0.25;;
48667;SDS011;34453;52.198;5.004;2023-07-20T11:21:43;1.85;;;1.35;;
48667;SDS011;34453;52.198;5.004;2023-07-20T11:24:10;0.60;;;0.60;;
48667;SDS011;34453;52.198;5.004;2023-07-20T11:26:41;1.70;;;0.70;;
48667;SDS011;34453;52.198;5.004;2023-07-20T11:29:12;0.73;;;0.40;;
48667;SDS011;34453;52.198;5.004;2023-07-20T11:31:42;0.38;;;0.38;;
48667;SDS011;34453;52.198;5.004;2023-07-20T11:34:10;1.35;;;0.57;;
48667;SDS011;34453;52.198;5.004;2023-07-20T11:36:38;0.82;;;0.43;;
48667;SDS011;34453;52.198;5.004;2023-07-20T11:39:10;2.63;;;0.50;;
48667;SDS011;34453;52.198;5.004;2023-07-20T11:41:37;1.77;;;0.52;;
48667;SDS011;34453;52.198;5.004;2023-07-20T11:44:03;1.33;;;0.50;;
48667;SDS011;34453;52.198;5.004;2023-07-20T11:46:31;0.80;;;0.40;;
48667;SDS011;34453;52.198;5.004;2023-07-20T11:49:00;0.70;;;0.60;;
48667;SDS011;34453;52.198;5.004;2023-07-20T11:51:26;0.60;;;0.50;;
48667;SDS011;34453;52.198;5.004;2023-07-20T11:53:53;0.93;;;0.50;;
48667;SDS011;34453;52.198;5.004;2023-07-20T11:56:19;1.08;;;0.30;;
48667;SDS011;34453;52.198;5.004;2023-07-20T11:58:45;2.17;;;0.30;;
48667;SDS011;34453;52.198;5.004;2023-07-20T12:01:14;2.15;;;0.50;;
48667;SDS011;34453;52.198;5.004;2023-07-20T12:03:41;0.82;;;0.35;;
48667;SDS011;34453;52.198;5.004;2023-07-20T12:06:10;0.68;;;0.40;;
48667;SDS011;34453;52.198;5.004;2023-07-20T12:08:42;0.32;;;0.30;;
48667;SDS011;34453;52.198;5.004;2023-07-20T12:11:09;3.05;;;0.40;;
48667;SDS011;34453;52.198;5.004;2023-07-20T12:13:38;0.60;;;0.40;;
48667;SDS011;34453;52.198;5.004;2023-07-20T12:16:14;0.40;;;0.40;;
48667;SDS011;34453;52.198;5.004;2023-07-20T12:18:41;0.40;;;0.40;;
48667;SDS011;34453;52.198;5.004;2023-07-20T12:21:07;0.40;;;0.40;;
48667;SDS011;34453;52.198;5.004;2023-07-20T12:23:37;0.55;;;0.40;;
48667;SDS011;34453;52.198;5.004;2023-07-20T12:26:08;0.63;;;0.63;;
48667;SDS011;34453;52.198;5.004;2023-07-20T12:28:40;0.40;;;0.38;;
48667;SDS011;34453;52.198;5.004;2023-07-20T12:31:06;0.40;;;0.40;;
48667;SDS011;34453;52.198;5.004;2023-07-20T12:33:32;2.28;;;0.55;;
48667;SDS011;34453;52.198;5.004;2023-07-20T12:35:58;1.00;;;0.60;;
48667;SDS011;34453;52.198;5.004;2023-07-20T12:38:25;0.38;;;0.38;;
48667;SDS011;34453;52.198;5.004;2023-07-20T12:40:52;0.40;;;0.40;;
48667;SDS011;34453;52.198;5.004;2023-07-20T12:43:19;0.90;;;0.40;;
48667;SDS011;34453;52.198;5.004;2023-07-20T12:45:45;0.30;;;0.28;;
48667;SDS011;34453;52.198;5.004;2023-07-20T12:48:10;0.30;;;0.30;;
48667;SDS011;34453;52.198;5.004;2023-07-20T12:50:36;0.60;;;0.30;;
48667;SDS011;34453;52.198;5.004;2023-07-20T12:53:01;0.30;;;0.30;;
48667;SDS011;34453;52.198;5.004;2023-07-20T12:55:28;6.47;;;0.55;;
48667;SDS011;34453;52.198;5.004;2023-07-20T12:57:54;0.60;;;0.20;;
48667;SDS011;34453;52.198;5.004;2023-07-20T13:00:20;0.40;;;0.40;;
48667;SDS011;34453;52.198;5.004;2023-07-20T13:02:48;0.40;;;0.40;;
48667;SDS011;34453;52.198;5.004;2023-07-20T13:05:14;0.68;;;0.40;;
48667;SDS011;34453;52.198;5.004;2023-07-20T13:07:40;0.60;;;0.30;;
48667;SDS011;34453;52.198;5.004;2023-07-20T13:10:06;1.20;;;0.40;;
48667;SDS011;34453;52.198;5.004;2023-07-20T13:12:33;0.22;;;0.22;;
48667;SDS011;34453;52.198;5.004;2023-07-20T13:14:59;0.50;;;0.50;;
48667;SDS011;34453;52.198;5.004;2023-07-20T13:17:27;2.55;;;0.80;;
48667;SDS011;34453;52.198;5.004;2023-07-20T13:19:54;0.25;;;0.25;;
48667;SDS011;34453;52.198;5.004;2023-07-20T13:22:19;6.68;;;0.30;;
48667;SDS011;34453;52.198;5.004;2023-07-20T13:24:46;0.75;;;0.30;;
48667;SDS011;34453;52.198;5.004;2023-07-20T13:27:15;1.10;;;0.43;;
48667;SDS011;34453;52.198;5.004;2023-07-20T13:29:41;1.27;;;0.30;;
48667;SDS011;34453;52.198;5.004;2023-07-20T13:32:07;1.27;;;0.30;;
48667;SDS011;34453;52.198;5.004;2023-07-20T13:34:34;1.63;;;0.43;;
48667;SDS011;34453;52.198;5.004;2023-07-20T13:36:59;1.45;;;0.40;;
48667;SDS011;34453;52.198;5.004;2023-07-20T13:39:25;0.15;;;0.15;;
48667;SDS011;34453;52.198;5.004;2023-07-20T13:41:52;0.20;;;0.20;;
48667;SDS011;34453;52.198;5.004;2023-07-20T13:44:19;0.30;;;0.30;;
48667;SDS011;34453;52.198;5.004;2023-07-20T13:46:45;0.17;;;0.17;;
48667;SDS011;34453;52.198;5.004;2023-07-20T13:49:11;0.50;;;0.20;;
48667;SDS011;34453;52.198;5.004;2023-07-20T13:51:36;0.40;;;0.40;;
48667;SDS011;34453;52.198;5.004;2023-07-20T13:54:02;0.60;;;0.20;;
48667;SDS011;34453;52.198;5.004;2023-07-20T13:56:27;0.40;;;0.40;;
48667;SDS011;34453;52.198;5.004;2023-07-20T13:58:53;2.33;;;0.13;;
48667;SDS011;34453;52.198;5.004;2023-07-20T14:01:18;0.60;;;0.32;;
48667;SDS011;34453;52.198;5.004;2023-07-20T14:03:44;0.20;;;0.20;;
48667;SDS011;34453;52.198;5.004;2023-07-20T14:06:09;0.20;;;0.20;;
48667;SDS011;34453;52.198;5.004;2023-07-20T14:08:37;0.20;;;0.20;;
48667;SDS011;34453;52.198;5.004;2023-07-20T14:11:02;1.13;;;0.40;;
48667;SDS011;34453;52.198;5.004;2023-07-20T14:13:28;0.38;;;0.20;;
48667;SDS011;34453;52.198;5.004;2023-07-20T14:15:53;0.25;;;0.20;;
48667;SDS011;34453;52.198;5.004;2023-07-20T14:18:19;0.25;;;0.25;;
48667;SDS011;34453;52.198;5.004;2023-07-20T14:20:44;0.32;;;0.30;;
48667;SDS011;34453;52.198;5.004;2023-07-20T14:23:10;0.40;;;0.30;;
48667;SDS011;34453;52.198;5.004;2023-07-20T14:25:35;0.77;;;0.70;;
48667;SDS011;34453;52.198;5.004;2023-07-20T14:28:00;0.47;;;0.30;;
48667;SDS011;34453;52.198;5.004;2023-07-20T14:30:26;0.40;;;0.40;;
48667;SDS011;34453;52.198;5.004;2023-07-20T14:32:51;2.15;;;0.28;;
48667;SDS011;34453;52.198;5.004;2023-07-20T14:35:17;0.50;;;0.35;;
48667;SDS011;34453;52.198;5.004;2023-07-20T14:37:43;0.20;;;0.20;;
48667;SDS011;34453;52.198;5.004;2023-07-20T14:40:11;2.08;;;0.28;;
48667;SDS011;34453;52.198;5.004;2023-07-20T14:42:37;0.20;;;0.20;;
48667;SDS011;34453;52.198;5.004;2023-07-20T14:45:03;1.75;;;0.50;;
48667;SDS011;34453;52.198;5.004;2023-07-20T14:47:30;0.30;;;0.28;;
48667;SDS011;34453;52.198;5.004;2023-07-20T14:49:57;2.42;;;0.30;;
48667;SDS011;34453;52.198;5.004;2023-07-20T14:52:23;0.30;;;0.20;;
48667;SDS011;34453;52.198;5.004;2023-07-20T14:54:48;0.35;;;0.35;;
48667;SDS011;34453;52.198;5.004;2023-07-20T14:57:14;0.52;;;0.30;;
48667;SDS011;34453;52.198;5.004;2023-07-20T14:59:39;0.47;;;0.20;;
48667;SDS011;34453;52.198;5.004;2023-07-20T15:02:06;0.43;;;0.43;;
48667;SDS011;34453;52.198;5.004;2023-07-20T15:04:32;0.28;;;0.28;;
48667;SDS011;34453;52.198;5.004;2023-07-20T15:06:58;1.25;;;0.32;;